.
WxDataArchive / Data Records for 2008-06-10
2008-06-09 June 2008 2008-06-11

Data Records for Tuesday, 10 June 2008

Time	Temp	Chill	HIndex	Humid	Dewpt	 Wind 	HiWind	WindDir	Rain 	Barom 
-----	----	-----	------	-----	-----	------	------	-------	-----	----- 
00:00	69.9	69.9	69.9	96	68.7	0	0	---	0.00	29.759 
00:05	69.9	69.9	69.9	96	68.7	0	0	---	0.00	29.759 
00:10	69.9	69.9	69.9	96	68.7	0	0	---	0.00	29.759 
00:15	69.8	69.8	69.8	96	68.6	0	0	---	0.00	29.760 
00:20	69.9	69.9	69.9	96	68.7	0	1	225	0.00	29.760 
00:25	69.9	69.9	69.9	96	68.7	1	2	225	0.01	29.779 
00:30	69.9	69.9	69.9	96	68.7	1	5	248	0.14	29.782 
00:35	69.4	69.4	69.4	96	68.2	0	1	22	0.03	29.777 
00:40	68.9	68.9	68.9	96	67.7	0	0	---	0.01	29.770 
00:45	68.8	68.8	68.8	96	67.6	0	0	---	0.01	29.781 
00:50	68.8	68.8	68.8	96	67.6	0	1	22	0.01	29.781 
00:55	68.8	68.8	68.8	96	67.6	0	1	22	0.01	29.773 
01:00	68.6	68.6	68.6	96	67.4	0	1	22	0.00	29.780 
01:05	68.4	68.4	68.4	96	67.2	0	1	22	0.01	29.780 
01:10	68.4	68.4	68.4	96	67.2	0	0	---	0.01	29.770 
01:15	68.4	68.4	68.4	96	67.2	0	0	---	0.00	29.755 
01:20	68.4	68.4	68.4	96	67.2	0	0	---	0.00	29.747 
01:25	68.3	68.3	68.3	96	67.1	0	0	---	0.00	29.740 
01:30	68.3	68.3	68.3	96	67.1	0	0	---	0.01	29.745 
01:35	68.1	68.1	68.1	96	66.9	0	0	---	0.00	29.741 
01:40	68.1	68.1	68.1	96	66.9	0	1	22	0.00	29.748 
01:45	68.1	68.1	68.1	96	66.9	0	1	22	0.00	29.750 
01:50	67.9	67.9	67.9	96	66.7	0	1	22	0.00	29.736 
01:55	67.9	67.9	67.9	96	66.7	0	0	---	0.01	29.735 
02:00	67.8	67.8	67.8	96	66.6	0	1	22	0.01	29.736 
02:05	67.8	67.8	67.8	96	66.6	0	1	22	0.00	29.749 
02:10	67.8	67.8	67.8	96	66.6	0	2	22	0.00	29.752 
02:15	67.9	67.9	67.9	96	66.7	0	4	248	0.00	29.751 
02:20	67.9	67.9	67.9	96	66.7	0	1	248	0.00	29.748 
02:25	67.9	67.9	67.9	96	66.7	0	2	248	0.00	29.750 
02:30	68.1	68.1	68.1	96	66.9	0	1	248	0.00	29.754 
02:35	68.1	68.1	68.1	96	66.9	0	3	248	0.00	29.757 
02:40	68.1	68.1	68.1	96	66.9	0	2	248	0.00	29.757 
02:45	68.1	68.1	68.1	96	66.9	0	2	248	0.00	29.759 
02:50	68.1	68.1	68.1	96	66.9	0	1	248	0.00	29.758 
02:55	67.9	67.9	67.9	96	66.7	0	2	248	0.00	29.760 
03:00	67.9	67.9	67.9	96	66.7	0	3	248	0.00	29.756 
03:05	67.9	67.9	67.9	96	66.7	0	2	248	0.00	29.753 
03:10	67.8	67.8	67.8	96	66.6	0	2	248	0.00	29.744 
03:15	67.8	67.8	67.8	96	66.6	0	1	248	0.00	29.742 
03:20	67.8	67.8	67.8	96	66.6	0	0	---	0.00	29.739 
03:25	67.6	67.6	67.6	96	66.4	0	0	---	0.01	29.728 
03:30	67.6	67.6	67.6	96	66.4	0	1	248	0.00	29.739 
03:35	67.6	67.6	67.6	96	66.4	0	0	---	0.00	29.742 
03:40	67.6	67.6	67.6	96	66.4	0	0	---	0.00	29.734 
03:45	67.6	67.6	67.6	96	66.4	0	1	248	0.00	29.729 
03:50	67.4	67.4	67.4	96	66.2	0	1	248	0.00	29.730 
03:55	67.4	67.4	67.4	96	66.2	0	1	248	0.00	29.728 
04:00	67.3	67.3	67.3	96	66.1	0	0	---	0.00	29.737 
04:05	67.4	67.4	67.4	96	66.2	0	1	248	0.00	29.743 
04:10	67.4	67.4	67.4	96	66.2	0	0	---	0.00	29.752 
04:15	67.4	67.4	67.4	96	66.2	0	1	248	0.00	29.755 
04:20	67.3	67.3	67.3	96	66.1	1	4	248	0.00	29.759 
04:25	67.3	67.3	67.3	96	66.1	0	3	225	0.00	29.761 
04:30	67.1	67.1	67.1	96	65.9	0	3	225	0.00	29.763 
04:35	66.9	66.9	66.9	96	65.7	0	2	225	0.01	29.763 
04:40	66.9	66.9	66.9	96	65.7	0	1	225	0.00	29.762 
04:45	66.8	66.8	66.8	96	65.6	0	2	225	0.01	29.759 
04:50	66.6	66.6	66.6	96	65.4	0	2	225	0.00	29.759 
04:55	66.3	66.3	66.3	96	65.1	1	3	225	0.01	29.759 
05:00	66.1	66.1	66.1	96	64.9	0	2	292	0.01	29.758 
05:05	66.0	66.0	66.0	96	64.8	0	1	292	0.01	29.761 
05:10	66.0	66.0	66.0	96	64.8	0	1	292	0.00	29.765 
05:15	66.0	66.0	66.0	96	64.8	0	2	292	0.00	29.774 
05:20	65.8	65.8	65.8	96	64.6	0	2	292	0.00	29.778 
05:25	65.8	65.8	65.8	96	64.6	0	1	248	0.00	29.780 
05:30	65.8	65.8	65.8	96	64.6	0	1	248	0.00	29.779 
05:35	65.8	65.8	65.8	96	64.6	0	1	248	0.00	29.785 
05:40	65.8	65.8	65.8	96	64.6	0	1	248	0.00	29.787 
05:45	65.8	65.8	65.8	96	64.6	0	1	248	0.01	29.791 
05:50	65.8	65.8	65.8	96	64.6	0	1	248	0.00	29.791 
05:55	65.8	65.8	65.8	96	64.6	0	1	248	0.00	29.790 
06:00	65.8	65.8	65.8	96	64.6	0	0	---	0.00	29.786 
06:05	65.8	65.8	65.8	96	64.6	0	1	248	0.01	29.783 
06:10	65.8	65.8	65.8	96	64.6	0	1	248	0.00	29.783 
06:15	66.0	66.0	66.0	96	64.8	0	1	248	0.00	29.794 
06:20	66.0	66.0	66.0	96	64.8	0	2	248	0.00	29.799 
06:25	63.1	63.1	63.1	95	61.6	1	4	292	0.01	29.810 
06:30	62.1	62.1	62.1	95	60.6	1	3	292	0.00	29.815 
06:35	61.8	61.8	61.8	95	60.3	1	4	270	0.01	29.820 
06:40	61.2	61.2	61.2	95	59.8	1	3	248	0.00	29.822 
06:45	60.7	60.7	60.7	94	59.0	1	2	292	0.01	29.821 
06:50	60.5	60.5	60.5	94	58.8	0	1	292	0.00	29.821 
06:55	60.5	60.5	60.5	94	58.8	0	1	292	0.01	29.822 
07:00	60.7	60.7	60.7	94	59.0	0	1	292	0.02	29.814 
07:05	60.9	60.9	60.9	95	59.5	0	1	292	0.00	29.817 
07:10	61.0	61.0	61.0	95	59.6	0	1	292	0.00	29.823 
07:15	61.2	61.2	61.2	95	59.8	0	1	292	0.01	29.829 
07:20	61.3	61.3	61.3	95	59.9	0	0	---	0.00	29.823 
07:25	61.6	61.6	61.6	95	60.2	0	0	---	0.01	29.827 
07:30	62.0	62.0	62.0	96	60.8	0	1	292	0.01	29.834 
07:35	62.0	62.0	62.0	96	60.8	0	1	338	0.00	29.831 
07:40	62.0	62.0	62.0	96	60.8	0	1	338	0.00	29.827 
07:45	62.0	62.0	62.0	96	60.8	0	1	338	0.00	29.831 
07:50	62.0	62.0	62.0	96	60.8	0	1	315	0.00	29.831 
07:55	62.1	62.1	62.1	96	60.9	0	1	315	0.00	29.831 
08:00	62.1	62.1	62.1	96	60.9	0	1	315	0.00	29.823 
08:05	62.1	62.1	62.1	96	60.9	0	1	315	0.00	29.822 
08:10	62.3	62.3	62.3	96	61.1	0	1	315	0.00	29.826 
08:15	62.1	62.1	62.1	96	60.9	0	2	270	0.00	29.831 
08:20	62.4	62.4	62.4	96	61.2	0	2	270	0.00	29.830 
08:25	62.7	62.7	62.7	96	61.5	0	2	270	0.00	29.831 
08:30	63.5	63.5	63.5	96	62.3	0	2	270	0.00	29.830 
08:35	63.5	63.5	63.5	95	62.0	0	2	270	0.00	29.829 
08:40	63.5	63.5	63.5	95	62.0	0	1	270	0.00	29.826 
08:45	63.7	63.7	63.7	95	62.2	0	1	270	0.00	29.826 
08:50	63.9	63.9	63.9	94	62.1	0	2	270	0.00	29.830 
08:55	64.5	64.5	64.5	94	62.7	0	1	270	0.00	29.829 
09:00	65.0	65.0	65.0	94	63.2	0	1	270	0.00	29.832 
09:05	64.8	64.8	64.8	92	62.4	0	2	248	0.00	29.832 
09:10	64.7	64.7	64.7	91	62.0	0	1	248	0.00	29.834 
09:15	64.7	64.7	64.7	91	62.0	0	1	248	0.00	29.832 
09:20	65.2	65.2	65.2	91	62.5	0	1	248	0.00	29.833 
09:25	66.0	66.0	66.0	91	63.3	0	2	248	0.00	29.833 
09:30	66.6	66.6	66.6	89	63.3	1	3	248	0.00	29.831 
09:35	67.6	67.6	67.6	88	63.9	1	2	248	0.00	29.831 
09:40	67.8	67.8	67.8	84	62.8	1	3	248	0.00	29.830 
09:45	68.4	68.4	68.4	83	63.0	1	2	248	0.00	29.831 
09:50	68.6	68.6	68.6	81	62.5	1	3	248	0.00	29.834 
09:55	69.1	69.1	69.1	80	62.7	1	3	248	0.00	29.833 
10:00	69.1	69.1	69.1	77	61.6	1	3	248	0.00	29.834 
10:05	69.4	69.4	69.4	79	62.6	1	3	248	0.00	29.835 
10:10	69.6	69.6	69.6	78	62.4	2	5	248	0.00	29.835 
10:15	69.9	69.9	69.9	77	62.3	1	3	248	0.00	29.839 
10:20	70.3	70.3	70.3	75	62.0	1	3	292	0.00	29.842 
10:25	69.9	69.9	69.9	73	60.8	1	3	270	0.00	29.843 
10:30	69.9	69.9	69.9	77	62.3	1	4	248	0.00	29.844 
10:35	70.4	70.4	70.4	76	62.5	1	3	248	0.00	29.847 
10:40	70.9	70.9	70.9	76	62.9	1	4	248	0.00	29.846 
10:45	71.1	71.1	71.1	72	61.6	2	3	270	0.00	29.847 
10:50	70.9	70.9	70.9	70	60.6	2	3	270	0.00	29.846 
10:55	71.1	71.1	71.1	72	61.6	1	4	270	0.00	29.851 
11:00	71.1	71.1	71.1	69	60.4	2	6	248	0.00	29.852 
11:05	71.3	71.3	71.3	71	61.4	1	3	248	0.00	29.852 
11:10	71.6	71.6	71.6	70	61.3	2	4	248	0.00	29.854 
11:15	72.1	72.1	72.1	70	61.8	1	3	248	0.00	29.854 
11:20	72.3	72.3	72.3	67	60.7	2	7	248	0.00	29.858 
11:25	72.1	72.1	72.1	66	60.1	2	4	270	0.00	29.858 
11:30	72.1	72.1	72.1	67	60.5	2	3	248	0.00	29.858 
11:35	72.8	72.8	72.8	66	60.8	2	6	225	0.00	29.861 
11:40	73.0	73.0	73.0	64	60.1	2	4	248	0.00	29.868 
11:45	72.8	72.8	72.8	62	59.0	3	7	248	0.00	29.871 
11:50	73.3	73.3	73.3	63	59.9	2	4	248	0.00	29.872 
11:55	73.9	73.9	73.9	64	60.9	1	3	292	0.00	29.871 
12:00	73.9	73.9	73.9	58	58.2	2	5	315	0.00	29.874 
12:05	73.9	73.9	73.9	62	60.0	2	4	270	0.00	29.875 
12:10	74.6	74.6	74.6	60	59.8	2	4	248	0.00	29.875 
12:15	74.6	74.6	74.6	56	57.8	2	6	270	0.00	29.873 
12:20	74.4	74.4	74.4	57	58.2	2	6	270	0.00	29.876 
12:25	74.6	74.6	74.6	58	58.8	2	5	248	0.00	29.877 
12:30	74.6	74.6	74.6	55	57.3	2	5	315	0.00	29.875 
12:35	74.0	74.0	74.0	56	57.3	2	5	270	0.00	29.879 
12:40	74.6	74.6	74.6	57	58.3	3	6	270	0.00	29.884 
12:45	74.6	74.6	74.6	55	57.3	2	5	248	0.00	29.884 
12:50	74.7	74.7	74.7	54	56.9	2	4	270	0.00	29.886 
12:55	73.9	73.9	73.9	53	55.7	3	6	270	0.00	29.888 
13:00	74.0	74.0	74.0	57	57.8	2	5	292	0.00	29.888 
13:05	74.7	74.7	74.7	55	57.4	1	4	248	0.00	29.885 
13:10	74.7	74.7	74.7	57	58.4	1	4	248	0.00	29.884 
13:15	74.7	74.7	74.7	53	56.4	3	6	270	0.00	29.887 
13:20	74.6	74.6	74.6	55	57.3	2	4	248	0.00	29.887 
13:25	73.9	73.9	73.9	56	57.2	2	4	270	0.00	29.888 
13:30	73.2	73.2	73.2	57	57.0	1	3	270	0.00	29.889 
13:35	73.0	73.0	73.0	58	57.3	1	3	315	0.00	29.888 
13:40	73.0	73.0	73.0	58	57.3	2	3	315	0.00	29.890 
13:45	73.0	73.0	73.0	57	56.9	1	4	338	0.00	29.891 
13:50	73.0	73.0	73.0	56	56.4	1	4	338	0.00	29.892 
13:55	73.0	73.0	73.0	55	55.9	2	5	248	0.00	29.894 
14:00	73.7	73.7	73.7	56	57.0	2	4	315	0.00	29.891 
14:05	74.0	74.0	74.0	52	55.2	2	6	270	0.00	29.891 
14:10	73.9	73.9	73.9	53	55.7	2	6	270	0.00	29.891 
14:15	73.7	73.7	73.7	53	55.5	1	3	315	0.00	29.892 
14:20	74.2	74.2	74.2	56	57.5	1	3	292	0.00	29.891 
14:25	74.7	74.7	74.7	53	56.4	2	5	270	0.00	29.891 
14:30	74.6	74.6	74.6	51	55.3	2	5	270	0.00	29.894 
14:35	73.9	73.9	73.9	53	55.7	1	4	270	0.00	29.897 
14:40	73.7	73.7	73.7	54	56.0	1	2	270	0.00	29.900 
14:45	74.4	74.4	74.4	55	57.2	1	3	270	0.00	29.903 
14:50	74.4	74.4	74.4	54	56.7	2	3	292	0.00	29.905 
14:55	75.3	75.3	77.7	50	55.4	2	4	248	0.00	29.906 
15:00	74.9	74.9	74.9	50	55.0	2	4	270	0.00	29.906 
15:05	75.6	75.6	77.9	51	56.2	2	5	248	0.00	29.904 
15:10	75.3	75.3	77.7	48	54.2	2	5	270	0.00	29.909 
15:15	75.4	75.4	77.8	51	56.0	1	4	248	0.00	29.907 
15:20	75.3	75.3	77.7	49	54.8	2	5	270	0.00	29.908 
15:25	76.0	76.0	78.1	49	55.4	1	5	270	0.00	29.909 
15:30	75.8	75.8	78.0	48	54.7	2	4	270	0.00	29.908 
15:35	76.3	76.3	78.2	47	54.6	2	4	315	0.00	29.908 
15:40	77.0	77.0	78.5	47	55.2	2	4	248	0.00	29.906 
15:45	77.2	77.2	78.6	46	54.8	2	7	248	0.00	29.905 
15:50	77.2	77.2	78.5	45	54.2	2	5	270	0.00	29.907 
15:55	77.2	77.2	78.5	45	54.2	2	5	270	0.00	29.905 
16:00	77.2	77.2	78.5	45	54.2	2	3	270	0.00	29.906 
16:05	77.4	77.4	78.6	44	53.8	2	4	292	0.00	29.906 
16:10	77.6	77.6	78.8	45	54.6	2	5	270	0.00	29.906 
16:15	77.7	77.7	78.8	44	54.0	2	4	248	0.00	29.905 
16:20	77.7	77.7	78.8	45	54.6	1	4	270	0.00	29.904 
16:25	77.7	77.7	78.6	41	52.1	2	4	270	0.00	29.905 
16:30	77.6	77.6	78.6	42	52.7	2	6	270	0.00	29.905 
16:35	77.7	77.7	78.8	45	54.6	1	4	270	0.00	29.905 
16:40	77.9	77.9	78.8	43	53.6	2	5	270	0.00	29.905 
16:45	77.7	77.7	78.6	41	52.1	2	3	292	0.00	29.905 
16:50	77.7	77.7	78.7	42	52.8	2	4	292	0.00	29.905 
16:55	77.6	77.6	78.7	43	53.3	2	5	315	0.00	29.906 
17:00	77.6	77.6	78.7	44	53.9	2	5	270	0.00	29.905 
17:05	77.6	77.6	78.5	40	51.3	2	4	248	0.00	29.906 
17:10	77.4	77.4	78.6	43	53.1	2	4	248	0.00	29.907 
17:15	77.4	77.4	78.6	43	53.1	1	4	270	0.00	29.906 
17:20	77.4	77.4	78.6	45	54.4	1	3	248	0.00	29.907 
17:25	77.7	77.7	78.7	43	53.4	1	3	248	0.00	29.906 
17:30	77.7	77.7	78.8	44	54.0	1	3	248	0.00	29.905 
17:35	77.6	77.6	78.7	44	53.9	0	2	315	0.00	29.905 
17:40	77.4	77.4	78.6	43	53.1	1	3	315	0.00	29.905 
17:45	77.2	77.2	78.5	44	53.6	1	4	248	0.00	29.908 
17:50	76.8	76.8	78.3	43	52.6	2	3	270	0.00	29.907 
17:55	76.8	76.8	78.2	42	51.9	1	3	270	0.00	29.908 
18:00	76.8	76.8	78.3	43	52.6	1	4	270	0.00	29.909 
18:05	76.8	76.8	78.3	43	52.6	1	2	270	0.00	29.912 
18:10	76.7	76.7	78.3	45	53.7	1	3	225	0.00	29.912 
18:15	76.7	76.7	78.2	43	52.5	2	4	270	0.00	29.918 
18:20	76.8	76.8	78.3	43	52.6	1	4	270	0.00	29.919 
18:25	76.7	76.7	78.3	44	53.1	0	2	292	0.00	29.921 
18:30	76.7	76.7	78.3	46	54.3	0	2	292	0.00	29.921 
18:35	76.7	76.7	78.3	45	53.7	0	2	292	0.00	29.920 
18:40	76.5	76.5	78.2	44	52.9	1	3	270	0.00	29.921 
18:45	76.3	76.3	78.0	43	52.1	1	3	270	0.00	29.923 
18:50	76.3	76.3	78.0	43	52.1	1	3	270	0.00	29.924 
18:55	76.1	76.1	78.0	44	52.6	1	4	270	0.00	29.924 
19:00	76.0	76.0	78.0	44	52.5	1	3	270	0.00	29.924 
19:05	76.0	76.0	78.0	44	52.5	1	3	270	0.00	29.923 
19:10	75.8	75.8	77.9	44	52.3	1	2	315	0.00	29.923 
19:15	75.6	75.6	77.8	46	53.3	0	1	315	0.00	29.924 
19:20	75.4	75.4	77.8	46	53.2	0	2	292	0.00	29.923 
19:25	75.3	75.3	77.7	46	53.1	0	2	292	0.00	29.925 
19:30	75.1	75.1	77.7	47	53.5	0	1	292	0.00	29.926 
19:35	74.7	74.7	74.7	48	53.7	0	1	292	0.00	29.927 
19:40	74.4	74.4	74.4	50	54.5	0	0	---	0.00	29.928 
19:45	73.9	73.9	73.9	50	54.1	0	0	---	0.00	29.929 
19:50	73.5	73.5	73.5	51	54.2	0	0	---	0.00	29.930 
19:55	73.0	73.0	73.0	52	54.3	0	0	---	0.00	29.930 
20:00	72.5	72.5	72.5	53	54.4	0	0	---	0.00	29.930 
20:05	72.0	72.0	72.0	54	54.4	0	0	---	0.00	29.928 
20:10	71.6	71.6	71.6	55	54.6	0	0	---	0.00	29.928 
20:15	71.1	71.1	71.1	58	55.6	0	0	---	0.00	29.929 
20:20	70.6	70.6	70.6	58	55.1	0	0	---	0.00	29.930 
20:25	69.9	69.9	69.9	59	54.9	0	0	---	0.00	29.933 
20:30	69.4	69.4	69.4	62	55.8	0	0	---	0.00	29.935 
20:35	69.1	69.1	69.1	63	56.0	0	0	---	0.00	29.937 
20:40	68.6	68.6	68.6	65	56.4	0	0	---	0.00	29.939 
20:45	68.3	68.3	68.3	66	56.5	0	0	---	0.00	29.944 
20:50	67.8	67.8	67.8	67	56.4	0	0	---	0.00	29.945 
20:55	67.4	67.4	67.4	67	56.1	0	0	---	0.00	29.946 
21:00	66.9	66.9	66.9	68	56.0	0	0	---	0.00	29.947 
21:05	66.6	66.6	66.6	69	56.1	0	0	---	0.00	29.948 
21:10	66.3	66.3	66.3	71	56.6	0	0	---	0.00	29.951 
21:15	65.8	65.8	65.8	73	56.9	0	0	---	0.00	29.952 
21:20	65.6	65.6	65.6	74	57.1	0	0	---	0.00	29.953 
21:25	65.2	65.2	65.2	75	57.1	0	0	---	0.00	29.953 
21:30	65.0	65.0	65.0	76	57.2	0	0	---	0.00	29.954 
21:35	64.7	64.7	64.7	76	57.0	0	0	---	0.00	29.956 
21:40	64.5	64.5	64.5	77	57.1	0	0	---	0.00	29.958 
21:45	64.3	64.3	64.3	77	56.9	0	0	---	0.00	29.960 
21:50	64.0	64.0	64.0	78	57.0	0	0	---	0.00	29.961 
21:55	63.9	63.9	63.9	78	56.9	0	0	---	0.00	29.961 
22:00	63.9	63.9	63.9	78	56.9	0	0	---	0.00	29.964 
22:05	63.9	63.9	63.9	78	56.9	0	0	---	0.00	29.962 
22:10	64.0	64.0	64.0	78	57.0	0	0	---	0.00	29.962 
22:15	64.2	64.2	64.2	78	57.2	0	0	---	0.00	29.962 
22:20	64.3	64.3	64.3	77	56.9	0	0	---	0.00	29.960 
22:25	64.5	64.5	64.5	77	57.1	0	0	---	0.00	29.958 
22:30	64.5	64.5	64.5	78	57.5	0	0	---	0.00	29.959 
22:35	64.5	64.5	64.5	78	57.5	0	0	---	0.00	29.960 
22:40	64.5	64.5	64.5	78	57.5	0	0	---	0.00	29.960 
22:45	64.3	64.3	64.3	79	57.6	0	0	---	0.00	29.962 
22:50	64.2	64.2	64.2	79	57.5	0	0	---	0.00	29.964 
22:55	64.2	64.2	64.2	79	57.5	0	0	---	0.00	29.964 
23:00	64.0	64.0	64.0	79	57.4	0	0	---	0.00	29.965 
23:05	64.0	64.0	64.0	80	57.7	0	0	---	0.00	29.965 
23:10	63.9	63.9	63.9	80	57.6	0	0	---	0.00	29.967 
23:15	63.9	63.9	63.9	80	57.6	0	0	---	0.00	29.970 
23:20	63.7	63.7	63.7	80	57.4	0	0	---	0.00	29.970 
23:25	63.7	63.7	63.7	81	57.8	0	0	---	0.00	29.971 
23:30	63.7	63.7	63.7	81	57.8	0	0	---	0.00	29.970 
23:35	63.7	63.7	63.7	81	57.8	0	0	---	0.00	29.971 
23:40	63.7	63.7	63.7	81	57.8	0	0	---	0.00	29.971 
23:45	63.5	63.5	63.5	81	57.6	0	0	---	0.00	29.971 
23:50	63.5	63.5	63.5	81	57.6	0	0	---	0.00	29.971 
23:55	63.5	63.5	63.5	82	57.9	0	0	---	0.00	29.971 

CoCoRaHS
IN-AL-39
A2 Web Hosting
Creative Commons License
GoDaddy
Look for:

loaded 2017-10-16 18:38:40 • last modified 2010-11-18 10:43:29
Privacy PolicyDisclaimer
• wx.awcolley.com is powered by PmWiki v.2002016 •
• all content (unless otherwise noted) © 2017 A W Colley